Time;durP1;ratioP1;P1;durP2;ratioP2;P2;SDS_P1;SDS_P2;PMS_P1;PMS_P2;Temp;Humidity;BMP_temperature;BMP_pressure;BME280_temperature;BME280_humidity;BME280_pressure;Samples;Min_cycle;Max_cycle;Signal;HPM_P1;HPM_P2
2022/07/28 00:00:59;;;;;;;2.37;1.50;;;;;;;18.73;75.48;100222.94;4995471;28;20189;-75
2022/07/28 00:03:24;;;;;;;4.57;1.53;;;;;;;18.70;75.89;100228.31;4987325;28;20195;-74
2022/07/28 00:05:49;;;;;;;2.30;1.40;;;;;;;18.70;75.87;100227.44;4988533;28;20188;-73
2022/07/28 00:08:15;;;;;;;3.20;1.70;;;;;;;18.70;76.15;100217.84;4987431;28;20269;-75
2022/07/28 00:10:40;;;;;;;1.77;1.30;;;;;;;18.68;76.18;100218.81;4993663;28;20198;-74
2022/07/28 00:13:06;;;;;;;1.40;1.30;;;;;;;18.66;76.35;100221.50;4988566;28;20190;-74
2022/07/28 00:15:31;;;;;;;2.70;1.60;;;;;;;18.69;76.10;100221.38;4987714;28;20223;-75
2022/07/28 00:17:57;;;;;;;1.57;1.20;;;;;;;18.64;76.67;100212.00;4987507;28;20185;-75
2022/07/28 00:20:22;;;;;;;1.73;1.30;;;;;;;18.65;76.06;100211.09;4989362;28;20205;-74
2022/07/28 00:22:48;;;;;;;1.93;1.20;;;;;;;18.65;76.26;100211.94;4991873;28;20207;-74
2022/07/28 00:25:14;;;;;;;3.70;1.20;;;;;;;18.60;76.25;100208.69;4987834;28;20202;-73
2022/07/28 00:27:39;;;;;;;4.37;1.50;;;;;;;18.59;76.23;100209.59;4988174;28;20686;-75
2022/07/28 00:30:06;;;;;;;2.80;1.50;;;;;;;18.56;76.28;100212.34;4987245;28;20211;-74
2022/07/28 00:32:31;;;;;;;2.63;1.37;;;;;;;18.56;75.68;100212.34;4989539;28;20216;-74
2022/07/28 00:34:57;;;;;;;2.57;1.50;;;;;;;18.55;75.95;100208.03;4988136;28;20687;-74
2022/07/28 00:37:22;;;;;;;2.77;1.20;;;;;;;18.52;75.87;100206.41;4982229;28;20948;-75
2022/07/28 00:39:47;;;;;;;1.70;1.10;;;;;;;18.51;76.24;100203.81;4988117;28;20216;-75
2022/07/28 00:42:17;;;;;;;1.53;1.20;;;;;;;18.52;75.92;100195.91;4989171;28;20190;-75
2022/07/28 00:44:43;;;;;;;2.63;1.30;;;;;;;18.50;76.26;100192.50;4986988;28;20665;-74
2022/07/28 00:47:08;;;;;;;2.23;1.50;;;;;;;18.46;76.71;100196.16;4988405;28;20720;-75
2022/07/28 00:49:34;;;;;;;2.73;1.17;;;;;;;18.45;76.85;100191.84;4997696;28;20261;-75
2022/07/28 00:51:59;;;;;;;2.17;1.47;;;;;;;18.46;76.46;100188.31;4988472;28;20295;-74
2022/07/28 00:54:25;;;;;;;2.43;1.37;;;;;;;18.41;76.97;100195.50;4985709;28;20194;-75
2022/07/28 00:56:50;;;;;;;2.93;1.37;;;;;;;18.39;77.01;100195.56;4983468;28;20212;-75
2022/07/28 00:59:16;;;;;;;1.90;1.37;;;;;;;18.35;76.73;100194.00;4987134;28;20253;-74
2022/07/28 01:01:41;;;;;;;2.40;1.10;;;;;;;18.32;76.91;100191.50;4995709;28;20669;-75
2022/07/28 01:04:07;;;;;;;2.20;1.40;;;;;;;18.27;77.43;100178.59;4986408;28;20212;-74
2022/07/28 01:06:57;;;;;;;2.67;1.40;;;;;;;18.25;77.47;100182.22;4987796;28;20186;-74
2022/07/28 01:09:31;;;;;;;1.93;1.10;;;;;;;18.21;76.98;100184.13;4979828;28;20207;-75
2022/07/28 01:12:06;;;;;;;1.40;1.20;;;;;;;18.12;77.11;100193.22;4983325;28;20298;-76
2022/07/28 01:14:46;;;;;;;2.10;1.27;;;;;;;18.08;77.48;100189.03;4986748;28;20193;-76
2022/07/28 01:17:17;;;;;;;2.77;1.20;;;;;;;18.03;77.05;100182.28;4983170;28;20185;-74
2022/07/28 01:20:04;;;;;;;1.83;1.37;;;;;;;17.94;77.61;100181.69;4985419;28;20300;-75
2022/07/28 01:22:36;;;;;;;2.73;1.30;;;;;;;17.91;77.68;100181.84;4988438;28;20243;-75
2022/07/28 01:25:22;;;;;;;3.53;1.50;;;;;;;17.88;78.26;100181.97;4984561;28;20197;-75
2022/07/28 01:27:48;;;;;;;1.90;1.37;;;;;;;17.84;78.15;100180.38;4984926;28;20304;-75
2022/07/28 01:30:44;;;;;;;1.50;1.30;;;;;;;17.81;78.38;100172.66;5001903;28;20303;-75
2022/07/28 01:33:23;;;;;;;1.90;1.27;;;;;;;17.77;78.31;100166.69;4966127;28;20201;-75
2022/07/28 01:36:07;;;;;;;3.00;1.13;;;;;;;17.76;78.65;100166.78;4985702;28;20546;-75
2022/07/28 01:38:35;;;;;;;1.67;1.27;;;;;;;17.74;78.74;100169.44;4984473;28;20190;-75
2022/07/28 01:41:06;;;;;;;1.93;1.30;;;;;;;17.74;78.64;100163.38;4983471;28;20182;-75
2022/07/28 01:43:35;;;;;;;1.33;1.20;;;;;;;17.73;78.29;100165.13;4990762;28;20193;-75
2022/07/28 01:46:02;;;;;;;2.53;1.20;;;;;;;17.76;78.05;100166.78;4989327;28;20570;-75
2022/07/28 01:48:36;;;;;;;3.90;1.47;;;;;;;17.75;78.03;100159.84;4989433;28;20278;-75
2022/07/28 01:51:03;;;;;;;3.90;1.70;;;;;;;17.75;78.07;100165.06;4991388;28;20367;-75
2022/07/28 01:53:30;;;;;;;2.27;1.30;;;;;;;17.75;77.91;100167.69;4998409;28;20296;-77
2022/07/28 01:55:58;;;;;;;1.90;1.10;;;;;;;17.72;77.79;100171.25;4987128;28;20694;-75
2022/07/28 01:58:25;;;;;;;1.73;1.10;;;;;;;17.72;77.69;100155.56;4990621;28;20260;-74
2022/07/28 02:00:52;;;;;;;3.10;1.30;;;;;;;17.70;77.83;100160.00;4989365;28;20205;-74
2022/07/28 02:03:19;;;;;;;1.93;1.30;;;;;;;17.71;77.81;100163.47;4991053;28;20192;-75
2022/07/28 02:05:49;;;;;;;2.57;1.30;;;;;;;17.69;77.37;100155.72;4991332;28;20703;-74
2022/07/28 02:08:17;;;;;;;3.83;1.30;;;;;;;17.65;77.51;100147.09;4997001;28;20232;-76
2022/07/28 02:11:38;;;;;;;2.60;1.33;;;;;;;17.60;77.50;100146.47;4990797;28;20237;-75
2022/07/28 02:13:31;;;;;;;3.27;1.40;;;;;;;17.56;78.04;100151.84;4982861;28;20197;-74
2022/07/28 02:15:57;;;;;;;1.30;1.17;;;;;;;17.52;78.62;100156.38;4989093;28;20189;-75
2022/07/28 02:18:24;;;;;;;1.37;1.17;;;;;;;17.47;79.19;100155.72;4996174;28;20193;-75
2022/07/28 02:20:50;;;;;;;1.20;1.07;;;;;;;17.44;79.40;100150.59;4984475;28;20244;-75
2022/07/28 02:23:17;;;;;;;1.70;1.20;;;;;;;17.42;78.85;100148.03;4989446;28;20261;-76
2022/07/28 02:25:43;;;;;;;2.73;1.20;;;;;;;17.43;79.29;100144.50;4989638;28;20177;-75
2022/07/28 02:28:09;;;;;;;1.93;1.30;;;;;;;17.41;78.98;100135.03;4989444;28;20258;-75
2022/07/28 02:30:43;;;;;;;1.67;1.07;;;;;;;17.40;79.36;100136.78;4990403;28;20287;-76
2022/07/28 02:33:15;;;;;;;2.63;1.23;;;;;;;17.33;79.79;100135.31;4982979;28;20189;-73
2022/07/28 02:35:47;;;;;;;3.93;1.30;;;;;;;17.30;79.34;100133.69;4993450;28;20198;-75
2022/07/28 02:38:21;;;;;;;2.43;1.10;;;;;;;17.24;79.41;100128.69;4991097;28;20204;-75
2022/07/28 02:40:50;;;;;;;1.20;1.10;;;;;;;17.22;79.65;100130.50;4988715;28;20221;-75
2022/07/28 02:43:23;;;;;;;2.43;1.43;;;;;;;17.19;80.01;100123.66;4990129;28;20207;-75
2022/07/28 02:45:52;;;;;;;1.73;1.23;;;;;;;17.15;79.77;100123.84;4989974;28;20185;-74
2022/07/28 02:48:25;;;;;;;1.90;1.20;;;;;;;17.11;79.55;100141.38;4990279;28;20220;-75
2022/07/28 02:50:53;;;;;;;1.17;1.03;;;;;;;17.09;79.66;100118.81;4979906;28;20612;-75
2022/07/28 02:53:21;;;;;;;1.83;1.10;;;;;;;17.06;79.68;100130.28;4988008;28;20204;-74
2022/07/28 02:55:48;;;;;;;4.60;1.40;;;;;;;17.03;79.41;100118.16;4989273;28;20187;-74
2022/07/28 02:58:17;;;;;;;1.93;1.30;;;;;;;16.99;79.46;100121.81;4990779;28;20268;-76
2022/07/28 03:00:43;;;;;;;3.23;1.27;;;;;;;16.95;79.39;100120.22;4988240;28;20225;-75
2022/07/28 03:03:09;;;;;;;1.57;1.10;;;;;;;16.91;80.33;100119.47;4988710;28;20200;-74
2022/07/28 03:05:35;;;;;;;1.70;1.07;;;;;;;16.87;80.32;100128.31;4987026;28;20189;-76
2022/07/28 03:08:01;;;;;;;2.37;1.37;;;;;;;16.86;80.32;100129.22;4986224;28;20201;-75
2022/07/28 03:10:27;;;;;;;3.33;1.20;;;;;;;16.84;80.23;100131.03;4989107;28;20213;-74
2022/07/28 03:12:55;;;;;;;1.70;1.13;;;;;;;16.80;80.27;100126.81;4995621;28;20216;-75
2022/07/28 03:15:21;;;;;;;3.73;1.47;;;;;;;16.75;80.46;100129.63;4981652;28;20849;-75
2022/07/28 03:17:46;;;;;;;2.07;1.43;;;;;;;16.71;80.61;100129.78;4984135;28;20192;-75
2022/07/28 03:20:12;;;;;;;1.37;1.27;;;;;;;16.63;81.24;100137.09;4988147;28;20710;-74
2022/07/28 03:22:38;;;;;;;1.97;1.30;;;;;;;16.60;80.93;100133.66;4991126;28;20685;-75
2022/07/28 03:25:12;;;;;;;2.00;1.33;;;;;;;16.55;81.17;100142.59;4990899;28;20190;-74
2022/07/28 03:27:42;;;;;;;3.53;1.33;;;;;;;16.49;81.68;100138.41;4990451;28;20978;-75
2022/07/28 03:30:11;;;;;;;1.47;1.23;;;;;;;16.49;81.91;100145.41;4987731;28;20665;-75
2022/07/28 03:32:41;;;;;;;2.23;1.27;;;;;;;16.45;82.10;100145.50;4989281;28;20308;-75
2022/07/28 03:35:09;;;;;;;3.03;1.33;;;;;;;16.40;82.66;100142.22;4988374;28;20195;-75
2022/07/28 03:37:42;;;;;;;1.87;1.40;;;;;;;16.37;82.78;100139.72;4989198;28;20201;-75
2022/07/28 03:40:09;;;;;;;2.30;1.53;;;;;;;16.41;82.55;100138.69;4986280;28;20209;-75
2022/07/28 03:42:36;;;;;;;3.40;1.30;;;;;;;16.40;82.58;100139.63;4993523;28;20193;-74
2022/07/28 03:45:04;;;;;;;1.90;1.40;;;;;;;16.39;82.72;100139.66;4987642;28;20185;-74
2022/07/28 03:47:29;;;;;;;1.90;1.40;;;;;;;16.37;83.09;100136.25;4991444;28;20188;-75
2022/07/28 03:49:57;;;;;;;2.10;1.53;;;;;;;16.33;83.44;100145.94;4990371;28;20223;-74
2022/07/28 03:52:22;;;;;;;3.93;1.47;;;;;;;16.30;83.62;100140.81;4988287;28;20221;-74
2022/07/28 03:54:47;;;;;;;4.70;1.70;;;;;;;16.30;83.94;100141.69;4988574;28;20279;-77
2022/07/28 03:57:13;;;;;;;5.33;1.83;;;;;;;16.30;83.57;100139.09;4989274;28;20192;-76
2022/07/28 03:59:38;;;;;;;4.17;1.50;;;;;;;16.30;83.87;100146.91;4988677;28;20208;-75
2022/07/28 04:02:04;;;;;;;5.13;1.37;;;;;;;16.29;83.72;100145.22;4988872;28;20193;-76
2022/07/28 04:04:29;;;;;;;1.93;1.47;;;;;;;16.28;84.16;100147.84;4987424;28;20910;-77
2022/07/28 04:06:55;;;;;;;4.10;1.40;;;;;;;16.30;83.76;100136.47;4987378;28;20328;-76
2022/07/28 04:09:20;;;;;;;3.47;1.50;;;;;;;16.27;84.45;100139.19;4988656;28;20228;-76
2022/07/28 04:11:45;;;;;;;3.27;1.13;;;;;;;16.28;84.27;100134.81;4989359;28;20291;-75
2022/07/28 04:14:11;;;;;;;2.47;1.23;;;;;;;16.28;84.95;100129.56;4986928;28;20196;-76
2022/07/28 04:16:36;;;;;;;4.80;1.20;;;;;;;16.29;84.58;100126.06;4987934;28;20676;-76
2022/07/28 04:19:02;;;;;;;2.60;1.40;;;;;;;16.30;84.66;100128.63;4989168;28;20291;-76
2022/07/28 04:21:27;;;;;;;1.83;1.20;;;;;;;16.42;84.57;100129.94;4986016;28;20181;-75
2022/07/28 04:23:52;;;;;;;1.70;1.30;;;;;;;16.71;83.73;100129.78;4987995;28;20207;-77
2022/07/28 04:26:18;;;;;;;3.37;1.60;;;;;;;16.75;83.69;100127.00;4987997;28;20822;-77
2022/07/28 04:28:44;;;;;;;2.13;1.40;;;;;;;16.71;83.46;100128.03;4986904;28;20237;-76
2022/07/28 04:31:10;;;;;;;3.00;1.37;;;;;;;16.68;83.84;100127.28;4987290;28;20212;-74
2022/07/28 04:33:35;;;;;;;1.87;1.50;;;;;;;16.68;83.89;100129.91;4986997;28;20193;-76
2022/07/28 04:36:01;;;;;;;2.47;1.50;;;;;;;16.68;83.79;100127.28;4988041;28;20193;-75
2022/07/28 04:38:27;;;;;;;4.07;1.70;;;;;;;16.69;83.57;100131.59;4986739;28;20188;-74
2022/07/28 04:40:53;;;;;;;3.57;1.43;;;;;;;16.74;83.40;100129.69;4981737;28;21009;-77
2022/07/28 04:43:19;;;;;;;1.73;1.37;;;;;;;16.84;83.49;100128.44;4988716;28;20275;-75
2022/07/28 04:45:45;;;;;;;4.27;1.47;;;;;;;16.99;82.37;100132.28;4987097;28;20200;-74
2022/07/28 04:48:14;;;;;;;3.10;1.70;;;;;;;17.21;81.84;100126.19;4985767;28;20193;-75
2022/07/28 04:50:40;;;;;;;3.70;1.53;;;;;;;17.37;80.68;100129.91;4982893;28;20303;-75
2022/07/28 04:53:06;;;;;;;3.43;1.50;;;;;;;17.50;80.58;100126.78;4985578;28;20189;-76
2022/07/28 04:55:32;;;;;;;2.43;1.23;;;;;;;17.62;79.84;100135.91;4974089;28;20612;-75
2022/07/28 04:57:57;;;;;;;1.73;1.23;;;;;;;17.68;79.47;100133.91;4988634;28;20189;-75
2022/07/28 05:00:23;;;;;;;2.77;1.40;;;;;;;17.79;78.97;100128.22;4986214;28;20744;-74
2022/07/28 05:02:48;;;;;;;2.27;1.27;;;;;;;17.91;79.27;100128.63;4986308;28;20194;-75
2022/07/28 05:05:13;;;;;;;3.03;1.50;;;;;;;17.96;78.82;100134.53;4985947;28;20193;-75
2022/07/28 05:07:40;;;;;;;6.90;1.67;;;;;;;17.98;79.57;100136.19;4985918;28;20188;-74
2022/07/28 05:10:09;;;;;;;1.97;1.40;;;;;;;17.98;80.07;100130.13;4987118;28;20658;-75
2022/07/28 05:12:35;;;;;;;4.67;1.50;;;;;;;18.03;79.35;100128.13;4986548;28;20295;-76
2022/07/28 05:15:00;;;;;;;2.57;1.30;;;;;;;18.15;79.52;100134.63;4980634;28;20280;-76
2022/07/28 05:17:26;;;;;;;3.37;1.60;;;;;;;18.34;78.56;100123.34;4983439;28;20195;-75
2022/07/28 05:19:52;;;;;;;1.93;1.53;;;;;;;18.58;78.00;100124.03;4987976;28;20217;-76
2022/07/28 05:22:18;;;;;;;3.77;1.50;;;;;;;18.65;77.85;100120.19;4979874;28;20189;-76
2022/07/28 05:24:43;;;;;;;3.33;1.33;;;;;;;18.86;76.95;100113.13;4986007;28;20201;-76
2022/07/28 05:27:10;;;;;;;3.87;1.37;;;;;;;19.11;76.52;100111.16;4985469;28;20204;-76
2022/07/28 05:29:39;;;;;;;4.03;1.60;;;;;;;19.31;75.44;100118.06;4983924;28;20592;-76
2022/07/28 05:32:06;;;;;;;1.37;1.17;;;;;;;20.18;73.75;100113.81;4982124;28;20247;-75
2022/07/28 05:34:31;;;;;;;4.23;1.80;;;;;;;20.94;71.23;100120.31;4985316;28;20861;-77
2022/07/28 05:36:57;;;;;;;4.73;1.50;;;;;;;21.90;69.08;100125.47;4976599;28;20220;-76
2022/07/28 05:39:23;;;;;;;4.63;1.57;;;;;;;21.98;67.34;100120.56;4985569;28;20240;-76
2022/07/28 05:41:48;;;;;;;3.17;1.60;;;;;;;22.94;66.17;100111.25;4986167;28;20189;-76
2022/07/28 05:44:14;;;;;;;2.60;1.27;;;;;;;23.06;64.94;100107.88;4978614;28;20192;-75
2022/07/28 05:46:39;;;;;;;3.73;1.17;;;;;;;23.93;63.76;100115.41;4988595;28;20245;-76
2022/07/28 05:49:05;;;;;;;2.77;1.27;;;;;;;24.10;63.28;100106.34;4984624;28;20569;-76
2022/07/28 05:51:30;;;;;;;3.97;1.50;;;;;;;24.39;62.31;100110.56;4986089;28;20232;-75
2022/07/28 05:53:55;;;;;;;5.53;1.30;;;;;;;24.46;62.19;100109.19;4991289;28;21072;-76
2022/07/28 05:56:21;;;;;;;3.53;1.50;;;;;;;24.77;61.28;100109.69;4985187;28;20296;-76
2022/07/28 05:58:47;;;;;;;3.10;1.20;;;;;;;25.55;59.84;100108.44;4979812;28;20186;-76
2022/07/28 06:01:13;;;;;;;1.70;1.20;;;;;;;25.47;59.21;100108.19;4985160;28;20199;-76
2022/07/28 06:03:38;;;;;;;2.57;1.40;;;;;;;25.53;59.53;100112.16;4987382;28;20276;-76
2022/07/28 06:06:04;;;;;;;4.30;1.60;;;;;;;25.66;59.13;100107.63;5000009;28;20220;-76
2022/07/28 06:08:30;;;;;;;8.63;2.00;;;;;;;25.33;59.24;100117.09;4984897;28;20201;-76
2022/07/28 06:11:00;;;;;;;3.90;1.40;;;;;;;25.20;59.95;100116.31;4987717;28;20254;-77
2022/07/28 06:13:26;;;;;;;1.50;1.20;;;;;;;25.58;59.54;100111.81;4986850;28;20207;-75
2022/07/28 06:15:51;;;;;;;3.37;1.53;;;;;;;25.54;59.65;100104.09;4985732;28;20193;-75
2022/07/28 06:18:18;;;;;;;4.37;1.77;;;;;;;26.39;58.84;100099.47;4985268;28;20359;-77
2022/07/28 06:20:45;;;;;;;4.97;1.63;;;;;;;26.92;58.15;100097.97;4987435;28;20213;-74
2022/07/28 06:23:11;;;;;;;1.73;1.40;;;;;;;27.28;57.93;100090.59;5002598;28;20625;-76
2022/07/28 06:25:36;;;;;;;3.07;1.40;;;;;;;26.14;58.90;100100.53;4987054;28;20189;-76
2022/07/28 06:28:02;;;;;;;5.73;1.90;;;;;;;26.44;59.00;100099.09;4988421;28;20645;-77
2022/07/28 06:30:28;;;;;;;3.27;1.57;;;;;;;26.97;58.40;100093.13;4989597;28;20992;-75
2022/07/28 06:32:55;;;;;;;3.07;1.53;;;;;;;27.45;57.11;100101.66;4991540;28;20245;-77
2022/07/28 06:35:23;;;;;;;1.90;1.20;;;;;;;27.76;56.86;100091.97;4990027;28;20216;-77
2022/07/28 06:37:50;;;;;;;3.60;1.70;;;;;;;27.76;56.78;100086.66;4990760;28;20541;-76
2022/07/28 06:40:18;;;;;;;3.10;1.30;;;;;;;27.69;56.49;100096.97;4989628;28;20212;-77
2022/07/28 06:42:44;;;;;;;3.27;1.70;;;;;;;27.33;56.51;100092.88;4990117;28;20657;-76
2022/07/28 06:45:12;;;;;;;3.67;1.40;;;;;;;27.75;56.23;100098.25;4989102;28;20181;-75
2022/07/28 06:47:37;;;;;;;2.87;1.30;;;;;;;27.84;55.85;100089.47;4990906;28;20200;-76
2022/07/28 06:50:04;;;;;;;2.80;1.50;;;;;;;27.56;55.91;100087.47;4988643;28;20677;-75
2022/07/28 06:52:30;;;;;;;5.20;1.43;;;;;;;28.02;55.45;100101.34;4991130;28;20217;-75
2022/07/28 06:54:56;;;;;;;3.33;1.33;;;;;;;27.28;56.17;100093.25;4990397;28;20213;-76
2022/07/28 06:57:21;;;;;;;2.97;1.60;;;;;;;27.71;56.21;100088.84;4990951;28;20223;-77
2022/07/28 06:59:48;;;;;;;2.07;1.30;;;;;;;27.93;55.55;100087.84;4989137;28;20216;-77
2022/07/28 07:02:14;;;;;;;3.60;1.53;;;;;;;28.35;55.02;100091.47;4990682;28;20194;-75
2022/07/28 07:04:39;;;;;;;2.70;1.40;;;;;;;28.01;55.60;100084.53;4987412;28;20193;-76
2022/07/28 07:07:04;;;;;;;4.13;1.67;;;;;;;27.24;56.46;100089.16;4988994;28;20200;-76
2022/07/28 07:09:30;;;;;;;6.07;1.70;;;;;;;25.68;58.78;100097.75;4989361;28;20696;-76
2022/07/28 07:11:56;;;;;;;3.57;1.50;;;;;;;25.58;59.58;100099.41;4985744;28;20213;-76
2022/07/28 07:14:21;;;;;;;3.93;1.33;;;;;;;26.06;59.04;100102.88;4989729;28;20271;-76
2022/07/28 07:16:47;;;;;;;1.90;1.30;;;;;;;25.75;59.32;100102.56;4996156;28;20706;-76
2022/07/28 07:19:12;;;;;;;2.13;1.50;;;;;;;26.16;59.31;100095.94;4987787;28;20240;-77
2022/07/28 07:21:37;;;;;;;2.47;1.60;;;;;;;26.58;58.18;100087.34;5004134;28;20189;-77
2022/07/28 07:24:03;;;;;;;2.77;1.40;;;;;;;26.43;58.95;100106.19;4990496;28;20228;-78
2022/07/28 07:26:28;;;;;;;3.27;1.50;;;;;;;25.77;59.88;100095.34;4988455;28;20193;-76
2022/07/28 07:28:54;;;;;;;3.83;1.63;;;;;;;26.26;59.34;100096.06;4988963;28;20189;-76
2022/07/28 07:31:19;;;;;;;4.80;2.00;;;;;;;25.50;60.63;100092.03;4990887;28;20236;-76
2022/07/28 07:33:45;;;;;;;3.73;1.40;;;;;;;26.46;59.25;100081.25;4989370;28;20240;-76
2022/07/28 07:36:10;;;;;;;2.60;1.40;;;;;;;26.54;59.39;100091.25;4990145;28;20192;-76
2022/07/28 07:38:37;;;;;;;3.43;1.60;;;;;;;26.74;58.73;100081.69;4987672;28;20196;-76
2022/07/28 07:41:03;;;;;;;2.50;1.50;;;;;;;26.81;58.93;100082.88;4990996;28;20691;-76
2022/07/28 07:43:28;;;;;;;3.00;1.80;;;;;;;26.55;59.05;100083.16;4989966;28;20193;-76
2022/07/28 07:45:54;;;;;;;4.87;1.93;;;;;;;26.30;59.92;100082.44;4985568;28;20200;-76
2022/07/28 07:48:19;;;;;;;4.27;1.77;;;;;;;26.56;60.05;100078.66;4987315;28;20185;-77
2022/07/28 07:50:45;;;;;;;3.00;1.40;;;;;;;26.48;59.71;100081.94;4987398;28;20258;-77
2022/07/28 07:53:10;;;;;;;4.30;1.60;;;;;;;26.74;59.56;100074.53;4985896;28;20189;-76
2022/07/28 07:55:35;;;;;;;3.13;1.60;;;;;;;26.99;58.84;100072.59;4988369;28;20196;-76
2022/07/28 07:58:01;;;;;;;3.53;1.60;;;;;;;26.87;59.11;100073.56;4987908;28;20177;-77
2022/07/28 08:00:26;;;;;;;5.03;1.87;;;;;;;26.62;59.69;100080.84;4990069;28;20224;-77
2022/07/28 08:02:52;;;;;;;4.17;1.80;;;;;;;26.71;59.42;100071.31;4981447;28;20185;-77
2022/07/28 08:05:17;;;;;;;2.00;1.70;;;;;;;26.32;60.50;100072.53;4988739;28;20272;-76
2022/07/28 08:07:43;;;;;;;3.30;1.60;;;;;;;26.41;60.75;100068.31;4989639;28;20482;-77
2022/07/28 08:10:09;;;;;;;2.87;1.80;;;;;;;26.17;61.50;100077.25;4994368;28;20212;-78
2022/07/28 08:12:35;;;;;;;3.40;1.80;;;;;;;25.83;62.06;100071.88;4988413;28;20224;-78
2022/07/28 08:15:01;;;;;;;4.97;2.10;;;;;;;26.16;61.58;100070.25;4988816;28;20232;-76
2022/07/28 08:17:26;;;;;;;5.17;2.00;;;;;;;26.02;61.79;100073.13;4991984;28;20197;-76
2022/07/28 08:19:52;;;;;;;3.63;1.83;;;;;;;25.42;62.84;100067.94;4984262;28;20586;-76
2022/07/28 08:22:18;;;;;;;4.23;2.20;;;;;;;25.09;64.59;100074.75;4981238;28;20211;-76
2022/07/28 08:24:43;;;;;;;2.23;1.80;;;;;;;25.28;63.94;100068.91;4986000;28;20193;-77
2022/07/28 08:27:08;;;;;;;4.00;2.20;;;;;;;25.13;64.29;100070.91;4991864;28;20216;-76
2022/07/28 08:29:34;;;;;;;6.47;2.20;;;;;;;25.12;64.95;100071.88;4987632;28;20262;-76
2022/07/28 08:32:02;;;;;;;3.60;2.20;;;;;;;24.76;65.65;100061.22;4986602;28;20786;-76
2022/07/28 08:34:28;;;;;;;5.73;2.30;;;;;;;24.90;65.69;100067.31;4987542;28;20271;-76
2022/07/28 08:36:54;;;;;;;2.90;2.50;;;;;;;24.76;65.81;100065.66;4994759;28;20253;-76
2022/07/28 08:39:19;;;;;;;3.70;2.13;;;;;;;24.80;65.97;100059.19;4988460;28;20632;-76
2022/07/28 08:41:56;;;;;;;2.87;2.30;;;;;;;25.00;65.46;100055.06;4988205;28;20181;-75
2022/07/28 08:44:29;;;;;;;3.37;2.17;;;;;;;24.94;65.63;100059.03;4989208;28;20183;-76
2022/07/28 08:46:56;;;;;;;2.60;2.10;;;;;;;24.71;65.86;100052.75;4983482;28;20671;-77
2022/07/28 08:49:21;;;;;;;3.80;2.30;;;;;;;24.58;67.21;100060.69;4990263;28;21118;-76
2022/07/28 08:51:48;;;;;;;5.57;2.30;;;;;;;24.63;67.18;100055.91;4992792;28;20201;-76
2022/07/28 08:54:19;;;;;;;4.03;2.37;;;;;;;24.57;67.08;100050.22;4989055;28;20189;-76
2022/07/28 08:56:46;;;;;;;6.10;2.30;;;;;;;24.63;66.53;100050.63;4989038;28;20503;-75
2022/07/28 08:59:12;;;;;;;2.90;2.40;;;;;;;24.53;67.72;100046.09;4989297;28;20623;-77
2022/07/28 09:01:37;;;;;;;7.00;2.63;;;;;;;24.77;67.15;100051.47;4989534;28;20293;-76
2022/07/28 09:04:04;;;;;;;7.43;2.90;;;;;;;24.78;67.02;100048.72;4986977;28;20267;-76
2022/07/28 09:06:30;;;;;;;3.47;2.10;;;;;;;24.94;66.32;100047.59;4992525;28;20195;-76
2022/07/28 09:08:55;;;;;;;3.33;2.47;;;;;;;25.09;66.65;100043.81;4984418;28;20193;-76
2022/07/28 09:11:21;;;;;;;5.70;2.80;;;;;;;24.83;67.25;100048.38;4993315;28;20205;-75
2022/07/28 09:13:46;;;;;;;4.80;2.37;;;;;;;24.81;67.53;100047.66;4985293;28;20230;-76
2022/07/28 09:16:14;;;;;;;4.63;3.00;;;;;;;24.88;67.34;100045.41;4990311;28;20184;-74
2022/07/28 09:18:39;;;;;;;4.47;2.93;;;;;;;24.98;66.82;100042.91;4987186;28;20839;-75
2022/07/28 09:21:05;;;;;;;4.20;2.40;;;;;;;25.01;67.53;100043.53;4988452;28;20184;-76
2022/07/28 09:23:45;;;;;;;5.53;2.80;;;;;;;25.19;66.98;100035.19;4993260;28;20247;-75
2022/07/28 09:26:11;;;;;;;3.70;2.83;;;;;;;25.26;67.10;100029.31;4984701;28;20199;-76
2022/07/28 09:29:07;;;;;;;4.53;2.70;;;;;;;25.16;66.91;100040.72;4985210;28;20181;-75
2022/07/28 09:31:32;;;;;;;4.40;2.80;;;;;;;25.11;67.24;100039.22;4993627;28;20253;-75
2022/07/28 09:33:59;;;;;;;6.57;3.10;;;;;;;25.14;67.46;100032.03;4989096;28;20968;-76
2022/07/28 09:36:26;;;;;;;5.40;2.93;;;;;;;25.05;68.03;100030.91;4986154;28;20196;-76
2022/07/28 09:38:53;;;;;;;3.40;3.10;;;;;;;25.02;67.96;100028.50;4986928;28;20653;-76
2022/07/28 09:41:20;;;;;;;3.47;2.90;;;;;;;25.05;67.45;100021.19;4986382;28;20223;-76
2022/07/28 09:43:47;;;;;;;2.93;2.57;;;;;;;25.27;67.93;100014.25;4979233;28;20182;-77
2022/07/28 09:46:14;;;;;;;6.17;2.90;;;;;;;25.40;67.94;100022.13;4988752;28;20208;-77
2022/07/28 09:48:53;;;;;;;8.47;3.20;;;;;;;25.61;66.99;100009.09;4995044;28;20537;-76
2022/07/28 09:51:20;;;;;;;3.63;2.50;;;;;;;25.98;66.85;100000.06;4987129;28;21946;-76
2022/07/28 09:53:45;;;;;;;3.47;2.77;;;;;;;26.07;66.69;99988.75;4985593;28;20558;-76
2022/07/28 09:56:12;;;;;;;7.83;3.43;;;;;;;26.02;66.99;100014.78;4989964;28;20192;-78
2022/07/28 09:58:39;;;;;;;3.73;3.10;;;;;;;25.87;66.90;99998.25;4990651;28;20636;-77
2022/07/28 10:01:11;;;;;;;9.30;3.40;;;;;;;25.88;67.37;99989.34;4985919;28;20197;-76
2022/07/28 10:03:38;;;;;;;23.27;3.77;;;;;;;25.94;66.96;99980.91;4989149;28;20192;-76
2022/07/28 10:06:07;;;;;;;8.80;3.27;;;;;;;26.13;67.00;99988.28;4988819;28;20227;-78
2022/07/28 10:08:49;;;;;;;8.00;3.60;;;;;;;26.26;66.41;99990.81;4990233;28;20197;-75
2022/07/28 10:11:18;;;;;;;5.67;3.20;;;;;;;26.55;66.33;99981.44;4994947;28;20209;-75
2022/07/28 10:14:12;;;;;;;6.80;3.37;;;;;;;26.70;65.74;99976.72;4992254;28;20194;-76
2022/07/28 10:16:51;;;;;;;7.90;3.70;;;;;;;26.74;65.40;99973.69;4989089;28;20204;-77
2022/07/28 10:19:17;;;;;;;9.47;3.20;;;;;;;26.72;65.77;99980.91;4989264;28;20255;-76
2022/07/28 10:21:43;;;;;;;4.23;3.07;;;;;;;26.80;66.12;99974.19;5005750;28;20201;-77
2022/07/28 10:24:15;;;;;;;4.77;3.40;;;;;;;26.91;66.23;99971.47;4987057;28;20186;-76
2022/07/28 10:26:45;;;;;;;3.93;3.47;;;;;;;26.80;66.22;99969.72;4982692;28;20216;-76
2022/07/28 10:29:15;;;;;;;5.77;3.20;;;;;;;26.77;65.91;99970.78;5002510;28;20205;-76
2022/07/28 10:31:52;;;;;;;4.10;3.07;;;;;;;27.10;65.99;99969.94;4990705;28;20236;-77
2022/07/28 10:34:26;;;;;;;3.37;3.07;;;;;;;27.12;65.38;99957.38;4985442;28;21086;-76
2022/07/28 10:36:55;;;;;;;4.17;3.10;;;;;;;27.35;65.40;99966.06;4985138;28;20540;-76
2022/07/28 10:39:24;;;;;;;3.60;3.27;;;;;;;27.38;65.37;99960.47;4983583;28;20213;-76
2022/07/28 10:41:50;;;;;;;7.87;3.67;;;;;;;27.28;65.58;99967.53;4993323;28;20259;-77
2022/07/28 10:44:18;;;;;;;6.67;3.73;;;;;;;26.87;66.63;99954.09;4996671;28;20185;-76
2022/07/28 10:46:44;;;;;;;5.50;3.70;;;;;;;27.01;66.47;99961.75;4990634;28;20621;-76
2022/07/28 10:49:12;;;;;;;4.37;3.80;;;;;;;26.81;66.64;99958.13;4996439;28;20205;-76
2022/07/28 10:51:46;;;;;;;16.30;4.50;;;;;;;26.75;67.25;99972.72;4994140;28;20223;-76
2022/07/28 10:54:29;;;;;;;12.77;4.20;;;;;;;26.98;66.63;99961.19;4988968;28;20184;-76
2022/07/28 10:57:03;;;;;;;6.97;3.90;;;;;;;27.18;66.14;99965.69;4993148;28;20187;-76
2022/07/28 10:59:38;;;;;;;10.80;4.30;;;;;;;27.33;66.15;99963.53;4992839;28;20213;-76
2022/07/28 11:02:03;;;;;;;3.67;3.37;;;;;;;27.41;65.78;99960.22;4982705;28;20216;-76
2022/07/28 11:04:54;;;;;;;3.63;3.33;;;;;;;28.02;64.95;99957.72;4987451;28;20247;-75
2022/07/28 11:07:21;;;;;;;12.07;3.57;;;;;;;27.80;65.55;99962.25;4984428;28;20232;-76
2022/07/28 11:09:47;;;;;;;5.97;3.30;;;;;;;27.64;65.10;99954.78;4985902;28;20611;-77
2022/07/28 11:12:14;;;;;;;3.83;3.40;;;;;;;27.94;65.08;99945.09;4990496;28;20331;-76
2022/07/28 11:14:41;;;;;;;5.77;3.70;;;;;;;28.05;64.78;99938.84;4983243;28;20217;-75
2022/07/28 11:17:06;;;;;;;9.40;4.17;;;;;;;27.88;65.00;99938.50;4994296;28;20185;-74
2022/07/28 11:19:44;;;;;;;4.47;3.70;;;;;;;27.88;64.34;99938.50;4992537;28;20201;-76
2022/07/28 11:22:18;;;;;;;6.10;3.90;;;;;;;27.88;64.33;99933.19;4993404;28;20263;-75
2022/07/28 11:24:55;;;;;;;8.70;4.00;;;;;;;28.14;63.96;99928.22;4991446;28;20223;-77
2022/07/28 11:27:44;;;;;;;4.17;3.77;;;;;;;28.16;63.48;99944.06;4986675;28;20199;-75
2022/07/28 11:30:27;;;;;;;5.17;3.90;;;;;;;28.12;63.22;99934.69;4988996;28;20213;-74